sensor_id;sensor_type;location;lat;lon;timestamp;P1;durP1;ratioP1;P2;durP2;ratioP2
1282;SDS011;634;48.810;9.148;2022-08-25T00:01:10;2.73;;;2.20;;
1282;SDS011;634;48.810;9.148;2022-08-25T00:03:41;3.80;;;2.63;;
1282;SDS011;634;48.810;9.148;2022-08-25T00:06:11;2.57;;;2.30;;
1282;SDS011;634;48.810;9.148;2022-08-25T00:08:42;2.80;;;2.60;;
1282;SDS011;634;48.810;9.148;2022-08-25T00:11:12;2.73;;;2.30;;
1282;SDS011;634;48.810;9.148;2022-08-25T00:13:45;3.80;;;2.50;;
1282;SDS011;634;48.810;9.148;2022-08-25T00:16:21;3.17;;;2.87;;
1282;SDS011;634;48.810;9.148;2022-08-25T00:18:53;2.73;;;2.13;;
1282;SDS011;634;48.810;9.148;2022-08-25T00:21:24;2.97;;;2.60;;
1282;SDS011;634;48.810;9.148;2022-08-25T00:23:56;3.80;;;3.23;;
1282;SDS011;634;48.810;9.148;2022-08-25T00:26:29;2.30;;;2.10;;
1282;SDS011;634;48.810;9.148;2022-08-25T00:28:59;3.27;;;2.53;;
1282;SDS011;634;48.810;9.148;2022-08-25T00:31:31;2.43;;;2.23;;
1282;SDS011;634;48.810;9.148;2022-08-25T00:34:03;2.90;;;2.50;;
1282;SDS011;634;48.810;9.148;2022-08-25T00:36:34;2.93;;;2.33;;
1282;SDS011;634;48.810;9.148;2022-08-25T00:39:05;2.93;;;2.50;;
1282;SDS011;634;48.810;9.148;2022-08-25T00:41:37;2.53;;;2.23;;
1282;SDS011;634;48.810;9.148;2022-08-25T00:44:08;3.20;;;2.90;;
1282;SDS011;634;48.810;9.148;2022-08-25T00:46:44;2.60;;;2.20;;
1282;SDS011;634;48.810;9.148;2022-08-25T00:49:16;5.43;;;2.70;;
1282;SDS011;634;48.810;9.148;2022-08-25T00:51:50;3.57;;;2.60;;
1282;SDS011;634;48.810;9.148;2022-08-25T00:54:24;3.33;;;2.80;;
1282;SDS011;634;48.810;9.148;2022-08-25T00:56:56;3.10;;;2.80;;
1282;SDS011;634;48.810;9.148;2022-08-25T00:59:27;3.03;;;2.70;;
1282;SDS011;634;48.810;9.148;2022-08-25T01:02:00;3.60;;;2.60;;
1282;SDS011;634;48.810;9.148;2022-08-25T01:04:30;2.87;;;2.57;;
1282;SDS011;634;48.810;9.148;2022-08-25T01:07:00;2.97;;;2.50;;
1282;SDS011;634;48.810;9.148;2022-08-25T01:09:32;3.00;;;2.47;;
1282;SDS011;634;48.810;9.148;2022-08-25T01:12:03;7.97;;;3.03;;
1282;SDS011;634;48.810;9.148;2022-08-25T01:14:33;4.13;;;3.00;;
1282;SDS011;634;48.810;9.148;2022-08-25T01:17:06;3.43;;;2.70;;
1282;SDS011;634;48.810;9.148;2022-08-25T01:19:36;5.03;;;3.27;;
1282;SDS011;634;48.810;9.148;2022-08-25T01:22:08;3.10;;;2.80;;
1282;SDS011;634;48.810;9.148;2022-08-25T01:24:39;3.67;;;3.10;;
1282;SDS011;634;48.810;9.148;2022-08-25T01:27:12;3.57;;;3.00;;
1282;SDS011;634;48.810;9.148;2022-08-25T01:29:42;4.70;;;3.10;;
1282;SDS011;634;48.810;9.148;2022-08-25T01:32:12;4.10;;;3.70;;
1282;SDS011;634;48.810;9.148;2022-08-25T01:34:42;5.17;;;3.20;;
1282;SDS011;634;48.810;9.148;2022-08-25T01:37:15;4.17;;;3.57;;
1282;SDS011;634;48.810;9.148;2022-08-25T01:39:45;3.10;;;2.80;;
1282;SDS011;634;48.810;9.148;2022-08-25T01:42:27;6.40;;;3.37;;
1282;SDS011;634;48.810;9.148;2022-08-25T01:45:05;3.33;;;3.00;;
1282;SDS011;634;48.810;9.148;2022-08-25T01:47:36;4.90;;;3.87;;
1282;SDS011;634;48.810;9.148;2022-08-25T01:50:08;4.50;;;3.23;;
1282;SDS011;634;48.810;9.148;2022-08-25T01:52:45;3.40;;;3.10;;
1282;SDS011;634;48.810;9.148;2022-08-25T01:55:18;4.00;;;3.37;;
1282;SDS011;634;48.810;9.148;2022-08-25T01:57:47;4.37;;;3.37;;
1282;SDS011;634;48.810;9.148;2022-08-25T02:00:18;4.90;;;3.63;;
1282;SDS011;634;48.810;9.148;2022-08-25T02:02:54;3.37;;;2.93;;
1282;SDS011;634;48.810;9.148;2022-08-25T02:05:23;4.37;;;3.50;;
1282;SDS011;634;48.810;9.148;2022-08-25T02:07:55;7.00;;;3.50;;
1282;SDS011;634;48.810;9.148;2022-08-25T02:10:25;4.63;;;3.50;;
1282;SDS011;634;48.810;9.148;2022-08-25T02:12:55;5.40;;;3.60;;
1282;SDS011;634;48.810;9.148;2022-08-25T02:15:24;4.40;;;3.57;;
1282;SDS011;634;48.810;9.148;2022-08-25T02:17:54;4.13;;;3.80;;
1282;SDS011;634;48.810;9.148;2022-08-25T02:20:24;3.80;;;3.40;;
1282;SDS011;634;48.810;9.148;2022-08-25T02:22:56;4.50;;;4.10;;
1282;SDS011;634;48.810;9.148;2022-08-25T02:25:26;3.53;;;3.20;;
1282;SDS011;634;48.810;9.148;2022-08-25T02:27:55;4.00;;;3.60;;
1282;SDS011;634;48.810;9.148;2022-08-25T02:30:28;4.80;;;3.97;;
1282;SDS011;634;48.810;9.148;2022-08-25T02:32:57;4.63;;;3.40;;
1282;SDS011;634;48.810;9.148;2022-08-25T02:35:26;4.77;;;4.37;;
1282;SDS011;634;48.810;9.148;2022-08-25T02:37:59;4.20;;;3.80;;
1282;SDS011;634;48.810;9.148;2022-08-25T02:40:29;5.80;;;3.77;;
1282;SDS011;634;48.810;9.148;2022-08-25T02:42:59;7.43;;;4.23;;
1282;SDS011;634;48.810;9.148;2022-08-25T02:45:28;4.27;;;3.20;;
1282;SDS011;634;48.810;9.148;2022-08-25T02:47:58;6.07;;;3.60;;
1282;SDS011;634;48.810;9.148;2022-08-25T02:50:28;5.40;;;4.10;;
1282;SDS011;634;48.810;9.148;2022-08-25T02:53:03;6.13;;;3.80;;
1282;SDS011;634;48.810;9.148;2022-08-25T02:55:32;4.97;;;4.03;;
1282;SDS011;634;48.810;9.148;2022-08-25T02:58:01;7.47;;;3.87;;
1282;SDS011;634;48.810;9.148;2022-08-25T03:00:31;5.70;;;4.40;;
1282;SDS011;634;48.810;9.148;2022-08-25T03:03:00;4.20;;;3.77;;
1282;SDS011;634;48.810;9.148;2022-08-25T03:05:30;4.70;;;3.87;;
1282;SDS011;634;48.810;9.148;2022-08-25T03:08:00;4.90;;;4.07;;
1282;SDS011;634;48.810;9.148;2022-08-25T03:10:32;4.50;;;4.07;;
1282;SDS011;634;48.810;9.148;2022-08-25T03:13:02;5.67;;;4.83;;
1282;SDS011;634;48.810;9.148;2022-08-25T03:15:32;5.10;;;4.20;;
1282;SDS011;634;48.810;9.148;2022-08-25T03:18:05;5.40;;;4.30;;
1282;SDS011;634;48.810;9.148;2022-08-25T03:20:36;6.50;;;3.80;;
1282;SDS011;634;48.810;9.148;2022-08-25T03:23:09;5.40;;;4.33;;
1282;SDS011;634;48.810;9.148;2022-08-25T03:25:39;4.97;;;4.30;;
1282;SDS011;634;48.810;9.148;2022-08-25T03:28:21;5.07;;;3.77;;
1282;SDS011;634;48.810;9.148;2022-08-25T03:30:51;4.80;;;4.23;;
1282;SDS011;634;48.810;9.148;2022-08-25T03:33:20;5.23;;;3.70;;
1282;SDS011;634;48.810;9.148;2022-08-25T03:35:50;6.03;;;4.23;;
1282;SDS011;634;48.810;9.148;2022-08-25T03:38:22;3.83;;;3.43;;
1282;SDS011;634;48.810;9.148;2022-08-25T03:40:52;5.60;;;3.90;;
1282;SDS011;634;48.810;9.148;2022-08-25T03:43:22;5.27;;;4.17;;
1282;SDS011;634;48.810;9.148;2022-08-25T03:45:51;6.33;;;3.63;;
1282;SDS011;634;48.810;9.148;2022-08-25T03:48:24;4.23;;;3.57;;
1282;SDS011;634;48.810;9.148;2022-08-25T03:50:54;4.23;;;3.83;;
1282;SDS011;634;48.810;9.148;2022-08-25T03:53:26;5.63;;;4.70;;
1282;SDS011;634;48.810;9.148;2022-08-25T03:55:56;6.40;;;5.57;;
1282;SDS011;634;48.810;9.148;2022-08-25T03:58:27;5.10;;;3.90;;
1282;SDS011;634;48.810;9.148;2022-08-25T04:00:57;4.67;;;3.80;;
1282;SDS011;634;48.810;9.148;2022-08-25T04:03:27;7.13;;;4.33;;
1282;SDS011;634;48.810;9.148;2022-08-25T04:05:59;5.97;;;4.50;;
1282;SDS011;634;48.810;9.148;2022-08-25T04:08:32;4.90;;;4.20;;
1282;SDS011;634;48.810;9.148;2022-08-25T04:11:04;5.33;;;4.30;;
1282;SDS011;634;48.810;9.148;2022-08-25T04:13:35;5.83;;;4.67;;
1282;SDS011;634;48.810;9.148;2022-08-25T04:16:08;4.50;;;4.10;;
1282;SDS011;634;48.810;9.148;2022-08-25T04:18:39;6.53;;;4.87;;
1282;SDS011;634;48.810;9.148;2022-08-25T04:21:09;6.23;;;4.60;;
1282;SDS011;634;48.810;9.148;2022-08-25T04:23:43;6.50;;;5.10;;
1282;SDS011;634;48.810;9.148;2022-08-25T04:26:14;5.80;;;4.67;;
1282;SDS011;634;48.810;9.148;2022-08-25T04:28:48;9.23;;;4.80;;
1282;SDS011;634;48.810;9.148;2022-08-25T04:31:18;5.87;;;4.77;;
1282;SDS011;634;48.810;9.148;2022-08-25T04:33:49;5.90;;;4.40;;
1282;SDS011;634;48.810;9.148;2022-08-25T04:36:19;6.40;;;4.63;;
1282;SDS011;634;48.810;9.148;2022-08-25T04:38:52;7.77;;;5.57;;
1282;SDS011;634;48.810;9.148;2022-08-25T04:41:24;6.50;;;5.10;;
1282;SDS011;634;48.810;9.148;2022-08-25T04:43:55;5.60;;;4.93;;
1282;SDS011;634;48.810;9.148;2022-08-25T04:46:29;6.17;;;4.80;;
1282;SDS011;634;48.810;9.148;2022-08-25T04:49:01;9.30;;;4.87;;
1282;SDS011;634;48.810;9.148;2022-08-25T04:51:32;7.50;;;4.97;;
1282;SDS011;634;48.810;9.148;2022-08-25T04:54:06;6.10;;;4.47;;
1282;SDS011;634;48.810;9.148;2022-08-25T04:56:41;5.93;;;4.27;;
1282;SDS011;634;48.810;9.148;2022-08-25T04:59:12;9.67;;;4.60;;
1282;SDS011;634;48.810;9.148;2022-08-25T05:01:43;6.43;;;4.50;;
1282;SDS011;634;48.810;9.148;2022-08-25T05:04:14;6.60;;;4.87;;
1282;SDS011;634;48.810;9.148;2022-08-25T05:06:44;6.80;;;5.10;;
1282;SDS011;634;48.810;9.148;2022-08-25T05:09:16;7.13;;;5.00;;
1282;SDS011;634;48.810;9.148;2022-08-25T05:11:45;10.43;;;5.27;;
1282;SDS011;634;48.810;9.148;2022-08-25T05:14:15;4.90;;;4.40;;
1282;SDS011;634;48.810;9.148;2022-08-25T05:16:47;6.00;;;4.77;;
1282;SDS011;634;48.810;9.148;2022-08-25T05:19:16;6.63;;;4.30;;
1282;SDS011;634;48.810;9.148;2022-08-25T05:21:46;5.27;;;4.20;;
1282;SDS011;634;48.810;9.148;2022-08-25T05:24:20;4.73;;;4.17;;
1282;SDS011;634;48.810;9.148;2022-08-25T05:26:52;6.83;;;4.73;;
1282;SDS011;634;48.810;9.148;2022-08-25T05:29:22;5.67;;;4.80;;
1282;SDS011;634;48.810;9.148;2022-08-25T05:31:51;7.20;;;5.20;;
1282;SDS011;634;48.810;9.148;2022-08-25T05:34:21;5.90;;;5.30;;
1282;SDS011;634;48.810;9.148;2022-08-25T05:36:50;5.23;;;4.53;;
1282;SDS011;634;48.810;9.148;2022-08-25T05:39:24;6.80;;;5.13;;
1282;SDS011;634;48.810;9.148;2022-08-25T05:41:57;6.30;;;5.33;;
1282;SDS011;634;48.810;9.148;2022-08-25T05:44:26;7.40;;;5.10;;
1282;SDS011;634;48.810;9.148;2022-08-25T05:46:56;7.40;;;5.10;;
1282;SDS011;634;48.810;9.148;2022-08-25T05:49:26;6.40;;;4.90;;
1282;SDS011;634;48.810;9.148;2022-08-25T05:51:55;5.93;;;5.27;;
1282;SDS011;634;48.810;9.148;2022-08-25T05:54:27;5.63;;;4.70;;
1282;SDS011;634;48.810;9.148;2022-08-25T05:56:59;6.00;;;4.60;;
1282;SDS011;634;48.810;9.148;2022-08-25T05:59:29;5.30;;;4.50;;
1282;SDS011;634;48.810;9.148;2022-08-25T06:02:01;12.00;;;4.80;;
1282;SDS011;634;48.810;9.148;2022-08-25T06:04:43;7.83;;;5.13;;
1282;SDS011;634;48.810;9.148;2022-08-25T06:07:12;6.43;;;5.00;;
1282;SDS011;634;48.810;9.148;2022-08-25T06:09:44;6.83;;;4.67;;
1282;SDS011;634;48.810;9.148;2022-08-25T06:12:15;10.97;;;5.23;;
1282;SDS011;634;48.810;9.148;2022-08-25T06:14:49;9.33;;;6.17;;
1282;SDS011;634;48.810;9.148;2022-08-25T06:17:19;6.63;;;5.03;;
1282;SDS011;634;48.810;9.148;2022-08-25T06:19:48;7.90;;;5.73;;
1282;SDS011;634;48.810;9.148;2022-08-25T06:22:18;8.33;;;5.80;;
1282;SDS011;634;48.810;9.148;2022-08-25T06:24:50;6.23;;;5.17;;
1282;SDS011;634;48.810;9.148;2022-08-25T06:27:20;7.40;;;5.80;;
1282;SDS011;634;48.810;9.148;2022-08-25T06:29:50;7.70;;;5.73;;
1282;SDS011;634;48.810;9.148;2022-08-25T06:32:19;6.93;;;6.13;;
1282;SDS011;634;48.810;9.148;2022-08-25T06:34:49;7.63;;;5.90;;
1282;SDS011;634;48.810;9.148;2022-08-25T06:37:19;8.00;;;5.50;;
1282;SDS011;634;48.810;9.148;2022-08-25T06:39:51;7.00;;;5.93;;
1282;SDS011;634;48.810;9.148;2022-08-25T06:42:22;6.73;;;5.67;;
1282;SDS011;634;48.810;9.148;2022-08-25T06:44:52;8.60;;;6.33;;
1282;SDS011;634;48.810;9.148;2022-08-25T06:47:22;8.57;;;5.90;;
1282;SDS011;634;48.810;9.148;2022-08-25T06:49:51;6.20;;;5.37;;
1282;SDS011;634;48.810;9.148;2022-08-25T06:52:21;11.57;;;6.10;;
1282;SDS011;634;48.810;9.148;2022-08-25T06:54:53;8.70;;;6.30;;
1282;SDS011;634;48.810;9.148;2022-08-25T06:57:22;13.37;;;6.00;;
1282;SDS011;634;48.810;9.148;2022-08-25T06:59:53;8.53;;;6.03;;
1282;SDS011;634;48.810;9.148;2022-08-25T07:02:23;10.13;;;6.60;;
1282;SDS011;634;48.810;9.148;2022-08-25T07:04:52;7.50;;;5.07;;
1282;SDS011;634;48.810;9.148;2022-08-25T07:07:21;10.03;;;6.13;;
1282;SDS011;634;48.810;9.148;2022-08-25T07:09:54;8.80;;;5.97;;
1282;SDS011;634;48.810;9.148;2022-08-25T07:12:25;6.97;;;5.20;;
1282;SDS011;634;48.810;9.148;2022-08-25T07:14:55;6.10;;;4.80;;
1282;SDS011;634;48.810;9.148;2022-08-25T07:17:26;8.70;;;7.00;;
1282;SDS011;634;48.810;9.148;2022-08-25T07:19:56;6.50;;;5.67;;
1282;SDS011;634;48.810;9.148;2022-08-25T07:22:25;6.40;;;5.20;;
1282;SDS011;634;48.810;9.148;2022-08-25T07:24:57;5.97;;;5.37;;
1282;SDS011;634;48.810;9.148;2022-08-25T07:27:28;9.27;;;5.50;;
1282;SDS011;634;48.810;9.148;2022-08-25T07:29:57;6.57;;;5.50;;
1282;SDS011;634;48.810;9.148;2022-08-25T07:32:27;6.57;;;5.73;;
1282;SDS011;634;48.810;9.148;2022-08-25T07:34:56;6.00;;;4.50;;
1282;SDS011;634;48.810;9.148;2022-08-25T07:37:38;7.20;;;5.43;;
1282;SDS011;634;48.810;9.148;2022-08-25T07:40:12;7.00;;;5.00;;
1282;SDS011;634;48.810;9.148;2022-08-25T07:42:42;9.63;;;5.70;;
1282;SDS011;634;48.810;9.148;2022-08-25T07:45:13;4.70;;;4.13;;
1282;SDS011;634;48.810;9.148;2022-08-25T07:47:43;7.33;;;5.07;;
1282;SDS011;634;48.810;9.148;2022-08-25T07:50:13;6.83;;;5.53;;
1282;SDS011;634;48.810;9.148;2022-08-25T07:52:42;5.80;;;5.00;;
1282;SDS011;634;48.810;9.148;2022-08-25T07:55:15;7.37;;;5.00;;
1282;SDS011;634;48.810;9.148;2022-08-25T07:57:44;7.30;;;5.40;;
1282;SDS011;634;48.810;9.148;2022-08-25T08:00:15;7.23;;;5.47;;
1282;SDS011;634;48.810;9.148;2022-08-25T08:02:45;6.10;;;4.87;;
1282;SDS011;634;48.810;9.148;2022-08-25T08:05:15;7.50;;;5.50;;
1282;SDS011;634;48.810;9.148;2022-08-25T08:07:44;7.27;;;5.60;;
1282;SDS011;634;48.810;9.148;2022-08-25T08:10:16;7.80;;;5.83;;
1282;SDS011;634;48.810;9.148;2022-08-25T08:12:47;5.00;;;4.50;;
1282;SDS011;634;48.810;9.148;2022-08-25T08:15:17;5.60;;;5.10;;
1282;SDS011;634;48.810;9.148;2022-08-25T08:17:46;8.67;;;5.63;;
1282;SDS011;634;48.810;9.148;2022-08-25T08:20:16;5.90;;;4.70;;
1282;SDS011;634;48.810;9.148;2022-08-25T08:22:45;6.47;;;4.80;;
1282;SDS011;634;48.810;9.148;2022-08-25T08:25:18;5.90;;;4.30;;
1282;SDS011;634;48.810;9.148;2022-08-25T08:27:47;6.90;;;5.03;;
1282;SDS011;634;48.810;9.148;2022-08-25T08:30:17;5.10;;;4.60;;
1282;SDS011;634;48.810;9.148;2022-08-25T08:32:46;6.33;;;4.97;;
1282;SDS011;634;48.810;9.148;2022-08-25T08:35:16;5.10;;;4.60;;
1282;SDS011;634;48.810;9.148;2022-08-25T08:37:46;4.73;;;4.10;;
1282;SDS011;634;48.810;9.148;2022-08-25T08:40:18;5.23;;;4.73;;
1282;SDS011;634;48.810;9.148;2022-08-25T08:42:51;5.00;;;4.33;;
1282;SDS011;634;48.810;9.148;2022-08-25T08:45:29;5.80;;;4.40;;
1282;SDS011;634;48.810;9.148;2022-08-25T08:48:14;4.93;;;4.53;;
1282;SDS011;634;48.810;9.148;2022-08-25T08:50:59;5.20;;;4.70;;
1282;SDS011;634;48.810;9.148;2022-08-25T08:53:37;5.47;;;4.90;;
1282;SDS011;634;48.810;9.148;2022-08-25T08:56:14;4.63;;;4.00;;
1282;SDS011;634;48.810;9.148;2022-08-25T08:58:47;5.37;;;4.87;;
1282;SDS011;634;48.810;9.148;2022-08-25T09:01:22;4.77;;;4.10;;
1282;SDS011;634;48.810;9.148;2022-08-25T09:03:55;5.20;;;4.43;;
1282;SDS011;634;48.810;9.148;2022-08-25T09:06:31;5.10;;;4.23;;
1282;SDS011;634;48.810;9.148;2022-08-25T09:09:09;4.33;;;3.93;;
1282;SDS011;634;48.810;9.148;2022-08-25T09:11:49;4.70;;;4.20;;
1282;SDS011;634;48.810;9.148;2022-08-25T09:14:29;5.83;;;5.00;;
1282;SDS011;634;48.810;9.148;2022-08-25T09:17:12;7.10;;;4.70;;
1282;SDS011;634;48.810;9.148;2022-08-25T09:20:03;7.03;;;4.50;;
1282;SDS011;634;48.810;9.148;2022-08-25T09:22:41;4.10;;;3.70;;
1282;SDS011;634;48.810;9.148;2022-08-25T09:25:23;5.27;;;4.77;;
1282;SDS011;634;48.810;9.148;2022-08-25T09:28:04;5.33;;;4.73;;
1282;SDS011;634;48.810;9.148;2022-08-25T09:30:39;5.73;;;4.07;;
1282;SDS011;634;48.810;9.148;2022-08-25T09:33:13;4.77;;;4.00;;
1282;SDS011;634;48.810;9.148;2022-08-25T09:35:46;4.97;;;4.37;;
1282;SDS011;634;48.810;9.148;2022-08-25T09:38:18;4.97;;;4.47;;
1282;SDS011;634;48.810;9.148;2022-08-25T09:40:53;4.60;;;4.20;;
1282;SDS011;634;48.810;9.148;2022-08-25T09:43:32;4.73;;;4.23;;
1282;SDS011;634;48.810;9.148;2022-08-25T09:46:08;4.90;;;4.03;;
1282;SDS011;634;48.810;9.148;2022-08-25T09:48:43;4.13;;;3.73;;
1282;SDS011;634;48.810;9.148;2022-08-25T09:51:18;4.93;;;4.40;;
1282;SDS011;634;48.810;9.148;2022-08-25T09:53:53;6.80;;;3.97;;
1282;SDS011;634;48.810;9.148;2022-08-25T09:56:27;4.50;;;4.10;;
1282;SDS011;634;48.810;9.148;2022-08-25T10:01:49;4.97;;;4.50;;
1282;SDS011;634;48.810;9.148;2022-08-25T10:04:24;4.30;;;3.90;;
1282;SDS011;634;48.810;9.148;2022-08-25T10:06:54;5.33;;;4.50;;
1282;SDS011;634;48.810;9.148;2022-08-25T10:09:27;4.23;;;3.83;;
1282;SDS011;634;48.810;9.148;2022-08-25T10:12:01;4.40;;;4.00;;
1282;SDS011;634;48.810;9.148;2022-08-25T10:14:50;4.57;;;4.17;;
1282;SDS011;634;48.810;9.148;2022-08-25T10:17:22;5.10;;;4.53;;
1282;SDS011;634;48.810;9.148;2022-08-25T10:19:54;5.20;;;4.37;;
1282;SDS011;634;48.810;9.148;2022-08-25T10:22:42;3.93;;;3.63;;
1282;SDS011;634;48.810;9.148;2022-08-25T10:25:15;4.10;;;3.70;;
1282;SDS011;634;48.810;9.148;2022-08-25T10:27:53;4.17;;;3.77;;
1282;SDS011;634;48.810;9.148;2022-08-25T10:30:39;4.27;;;3.93;;
1282;SDS011;634;48.810;9.148;2022-08-25T10:33:23;4.20;;;3.77;;
1282;SDS011;634;48.810;9.148;2022-08-25T10:36:00;3.87;;;3.57;;
1282;SDS011;634;48.810;9.148;2022-08-25T10:38:36;4.47;;;4.07;;
1282;SDS011;634;48.810;9.148;2022-08-25T10:41:13;3.83;;;3.53;;
1282;SDS011;634;48.810;9.148;2022-08-25T10:44:04;3.83;;;3.53;;
1282;SDS011;634;48.810;9.148;2022-08-25T10:46:59;5.90;;;5.10;;
1282;SDS011;634;48.810;9.148;2022-08-25T10:49:52;4.40;;;4.00;;
1282;SDS011;634;48.810;9.148;2022-08-25T10:52:25;5.27;;;3.80;;
1282;SDS011;634;48.810;9.148;2022-08-25T10:55:00;5.90;;;3.83;;
1282;SDS011;634;48.810;9.148;2022-08-25T10:57:42;5.13;;;4.73;;
1282;SDS011;634;48.810;9.148;2022-08-25T11:00:25;4.40;;;4.00;;
1282;SDS011;634;48.810;9.148;2022-08-25T11:05:58;4.30;;;3.90;;
1282;SDS011;634;48.810;9.148;2022-08-25T11:08:33;6.70;;;6.00;;
1282;SDS011;634;48.810;9.148;2022-08-25T11:11:09;4.20;;;3.90;;
1282;SDS011;634;48.810;9.148;2022-08-25T11:13:49;4.60;;;4.20;;
1282;SDS011;634;48.810;9.148;2022-08-25T11:16:25;3.07;;;2.87;;
1282;SDS011;634;48.810;9.148;2022-08-25T11:19:06;5.27;;;3.40;;
1282;SDS011;634;48.810;9.148;2022-08-25T11:21:47;3.33;;;3.03;;
1282;SDS011;634;48.810;9.148;2022-08-25T11:24:26;3.63;;;3.33;;
1282;SDS011;634;48.810;9.148;2022-08-25T11:27:05;5.50;;;3.20;;
1282;SDS011;634;48.810;9.148;2022-08-25T11:29:42;4.47;;;3.43;;
1282;SDS011;634;48.810;9.148;2022-08-25T11:32:21;3.40;;;3.20;;
1282;SDS011;634;48.810;9.148;2022-08-25T11:34:54;3.60;;;3.30;;
1282;SDS011;634;48.810;9.148;2022-08-25T11:37:26;3.40;;;3.10;;
1282;SDS011;634;48.810;9.148;2022-08-25T11:43:00;3.43;;;3.13;;
1282;SDS011;634;48.810;9.148;2022-08-25T11:45:47;2.93;;;2.73;;
1282;SDS011;634;48.810;9.148;2022-08-25T11:48:34;3.43;;;2.77;;
1282;SDS011;634;48.810;9.148;2022-08-25T11:51:25;3.87;;;2.70;;
1282;SDS011;634;48.810;9.148;2022-08-25T11:54:14;3.87;;;2.80;;
1282;SDS011;634;48.810;9.148;2022-08-25T11:56:50;2.63;;;2.43;;
1282;SDS011;634;48.810;9.148;2022-08-25T12:02:34;2.80;;;2.60;;
1282;SDS011;634;48.810;9.148;2022-08-25T12:05:06;2.80;;;2.60;;
1282;SDS011;634;48.810;9.148;2022-08-25T12:10:52;3.07;;;2.77;;
1282;SDS011;634;48.810;9.148;2022-08-25T12:13:26;3.70;;;3.00;;
1282;SDS011;634;48.810;9.148;2022-08-25T12:21:56;2.80;;;2.60;;
1282;SDS011;634;48.810;9.148;2022-08-25T12:24:51;3.20;;;2.90;;
1282;SDS011;634;48.810;9.148;2022-08-25T12:27:26;2.70;;;2.50;;
1282;SDS011;634;48.810;9.148;2022-08-25T12:30:00;3.40;;;3.10;;
1282;SDS011;634;48.810;9.148;2022-08-25T12:32:43;3.90;;;3.13;;
1282;SDS011;634;48.810;9.148;2022-08-25T12:35:24;3.50;;;3.20;;
1282;SDS011;634;48.810;9.148;2022-08-25T12:38:02;3.93;;;3.07;;
1282;SDS011;634;48.810;9.148;2022-08-25T12:40:52;5.03;;;2.93;;
1282;SDS011;634;48.810;9.148;2022-08-25T12:43:33;3.20;;;2.90;;
1282;SDS011;634;48.810;9.148;2022-08-25T12:49:03;4.13;;;3.00;;
1282;SDS011;634;48.810;9.148;2022-08-25T12:51:46;3.33;;;2.40;;
1282;SDS011;634;48.810;9.148;2022-08-25T12:54:22;2.40;;;2.20;;
1282;SDS011;634;48.810;9.148;2022-08-25T12:57:02;2.87;;;2.60;;
1282;SDS011;634;48.810;9.148;2022-08-25T12:59:43;2.80;;;2.60;;
1282;SDS011;634;48.810;9.148;2022-08-25T13:05:32;2.67;;;2.47;;
1282;SDS011;634;48.810;9.148;2022-08-25T13:08:29;2.90;;;2.70;;
1282;SDS011;634;48.810;9.148;2022-08-25T13:11:26;2.70;;;2.50;;
1282;SDS011;634;48.810;9.148;2022-08-25T13:14:06;3.17;;;2.90;;
1282;SDS011;634;48.810;9.148;2022-08-25T13:16:51;2.80;;;2.60;;
1282;SDS011;634;48.810;9.148;2022-08-25T13:19:22;3.20;;;2.87;;
1282;SDS011;634;48.810;9.148;2022-08-25T13:21:55;3.00;;;2.57;;
1282;SDS011;634;48.810;9.148;2022-08-25T13:24:28;3.97;;;3.13;;
1282;SDS011;634;48.810;9.148;2022-08-25T13:27:03;2.53;;;2.33;;
1282;SDS011;634;48.810;9.148;2022-08-25T13:29:48;2.83;;;2.63;;
1282;SDS011;634;48.810;9.148;2022-08-25T13:32:24;5.00;;;3.10;;
1282;SDS011;634;48.810;9.148;2022-08-25T13:35:06;7.43;;;3.53;;
1282;SDS011;634;48.810;9.148;2022-08-25T13:37:42;4.40;;;3.40;;
1282;SDS011;634;48.810;9.148;2022-08-25T13:40:12;3.00;;;2.80;;
1282;SDS011;634;48.810;9.148;2022-08-25T13:42:47;4.43;;;2.80;;
1282;SDS011;634;48.810;9.148;2022-08-25T13:45:23;3.70;;;2.83;;
1282;SDS011;634;48.810;9.148;2022-08-25T13:47:55;3.40;;;2.70;;
1282;SDS011;634;48.810;9.148;2022-08-25T13:50:28;2.93;;;2.63;;
1282;SDS011;634;48.810;9.148;2022-08-25T13:53:02;4.20;;;2.67;;
1282;SDS011;634;48.810;9.148;2022-08-25T13:55:35;3.00;;;2.77;;
1282;SDS011;634;48.810;9.148;2022-08-25T13:58:10;2.93;;;2.70;;
1282;SDS011;634;48.810;9.148;2022-08-25T14:00:46;3.17;;;2.47;;
1282;SDS011;634;48.810;9.148;2022-08-25T14:03:31;2.90;;;2.57;;
1282;SDS011;634;48.810;9.148;2022-08-25T14:06:03;3.23;;;2.93;;
1282;SDS011;634;48.810;9.148;2022-08-25T14:08:35;2.77;;;2.57;;
1282;SDS011;634;48.810;9.148;2022-08-25T14:11:09;2.63;;;2.43;;
1282;SDS011;634;48.810;9.148;2022-08-25T14:13:41;3.90;;;3.47;;
1282;SDS011;634;48.810;9.148;2022-08-25T14:16:17;3.90;;;2.83;;
1282;SDS011;634;48.810;9.148;2022-08-25T14:18:50;3.60;;;2.90;;
1282;SDS011;634;48.810;9.148;2022-08-25T14:21:24;3.00;;;2.70;;
1282;SDS011;634;48.810;9.148;2022-08-25T14:23:55;3.77;;;3.37;;
1282;SDS011;634;48.810;9.148;2022-08-25T14:26:26;4.00;;;3.20;;
1282;SDS011;634;48.810;9.148;2022-08-25T14:28:55;3.30;;;3.00;;
1282;SDS011;634;48.810;9.148;2022-08-25T14:31:28;3.57;;;2.93;;
1282;SDS011;634;48.810;9.148;2022-08-25T14:34:00;5.23;;;2.97;;
1282;SDS011;634;48.810;9.148;2022-08-25T14:36:32;3.30;;;2.80;;
1282;SDS011;634;48.810;9.148;2022-08-25T14:39:05;3.77;;;2.87;;
1282;SDS011;634;48.810;9.148;2022-08-25T14:41:35;3.27;;;2.80;;
1282;SDS011;634;48.810;9.148;2022-08-25T14:44:07;2.60;;;2.40;;
1282;SDS011;634;48.810;9.148;2022-08-25T14:46:41;2.80;;;2.60;;
1282;SDS011;634;48.810;9.148;2022-08-25T14:49:15;3.00;;;2.80;;
1282;SDS011;634;48.810;9.148;2022-08-25T14:51:48;3.63;;;2.60;;
1282;SDS011;634;48.810;9.148;2022-08-25T14:54:18;4.40;;;2.63;;
1282;SDS011;634;48.810;9.148;2022-08-25T14:56:50;3.57;;;3.27;;
1282;SDS011;634;48.810;9.148;2022-08-25T14:59:20;2.90;;;2.70;;
1282;SDS011;634;48.810;9.148;2022-08-25T15:01:53;3.47;;;2.63;;
1282;SDS011;634;48.810;9.148;2022-08-25T15:04:26;3.33;;;3.03;;
1282;SDS011;634;48.810;9.148;2022-08-25T15:06:58;2.80;;;2.50;;
1282;SDS011;634;48.810;9.148;2022-08-25T15:09:48;3.80;;;2.83;;
1282;SDS011;634;48.810;9.148;2022-08-25T15:12:15;3.13;;;2.90;;
1282;SDS011;634;48.810;9.148;2022-08-25T15:14:46;3.30;;;3.00;;
1282;SDS011;634;48.810;9.148;2022-08-25T15:17:18;3.40;;;3.10;;
1282;SDS011;634;48.810;9.148;2022-08-25T15:19:48;3.87;;;3.00;;
1282;SDS011;634;48.810;9.148;2022-08-25T15:22:17;4.20;;;3.80;;
1282;SDS011;634;48.810;9.148;2022-08-25T15:24:46;3.23;;;2.97;;
1282;SDS011;634;48.810;9.148;2022-08-25T15:27:18;3.30;;;3.00;;
1282;SDS011;634;48.810;9.148;2022-08-25T15:29:48;3.33;;;2.67;;
1282;SDS011;634;48.810;9.148;2022-08-25T15:32:20;3.00;;;2.73;;
1282;SDS011;634;48.810;9.148;2022-08-25T15:34:50;3.57;;;3.27;;
1282;SDS011;634;48.810;9.148;2022-08-25T15:37:19;3.47;;;3.10;;
1282;SDS011;634;48.810;9.148;2022-08-25T15:39:49;3.73;;;3.43;;
1282;SDS011;634;48.810;9.148;2022-08-25T15:42:18;3.50;;;3.20;;
1282;SDS011;634;48.810;9.148;2022-08-25T15:44:48;3.13;;;2.70;;
1282;SDS011;634;48.810;9.148;2022-08-25T15:47:17;3.10;;;2.90;;
1282;SDS011;634;48.810;9.148;2022-08-25T15:49:49;3.70;;;3.40;;
1282;SDS011;634;48.810;9.148;2022-08-25T15:52:27;4.20;;;3.53;;
1282;SDS011;634;48.810;9.148;2022-08-25T15:54:56;3.47;;;3.17;;
1282;SDS011;634;48.810;9.148;2022-08-25T15:57:26;4.13;;;3.07;;
1282;SDS011;634;48.810;9.148;2022-08-25T15:59:56;3.50;;;3.13;;
1282;SDS011;634;48.810;9.148;2022-08-25T16:02:25;4.07;;;3.67;;
1282;SDS011;634;48.810;9.148;2022-08-25T16:04:57;3.80;;;3.23;;
1282;SDS011;634;48.810;9.148;2022-08-25T16:07:29;4.83;;;3.60;;
1282;SDS011;634;48.810;9.148;2022-08-25T16:10:01;3.60;;;3.30;;
1282;SDS011;634;48.810;9.148;2022-08-25T16:12:31;2.97;;;2.77;;
1282;SDS011;634;48.810;9.148;2022-08-25T16:15:01;4.13;;;3.73;;
1282;SDS011;634;48.810;9.148;2022-08-25T16:17:30;3.43;;;3.13;;
1282;SDS011;634;48.810;9.148;2022-08-25T16:20:03;6.10;;;3.47;;
1282;SDS011;634;48.810;9.148;2022-08-25T16:22:33;4.87;;;4.10;;
1282;SDS011;634;48.810;9.148;2022-08-25T16:25:03;4.33;;;3.90;;
1282;SDS011;634;48.810;9.148;2022-08-25T16:27:33;5.73;;;3.70;;
1282;SDS011;634;48.810;9.148;2022-08-25T16:30:02;3.70;;;3.40;;
1282;SDS011;634;48.810;9.148;2022-08-25T16:32:33;4.03;;;3.37;;
1282;SDS011;634;48.810;9.148;2022-08-25T16:35:05;4.00;;;3.60;;